createdAt,value
2022-08-25T07:52:12.365Z,80.10
2022-08-25T07:54:39.181Z,80.50
2022-08-25T07:57:07.187Z,80.30
2022-08-25T07:59:39.434Z,80.40
2022-08-25T08:02:08.238Z,80.30
2022-08-25T08:04:36.409Z,79.90
2022-08-25T08:07:03.523Z,79.50
2022-08-25T08:09:31.312Z,79.50
2022-08-25T08:11:58.195Z,79.30
2022-08-25T08:14:25.050Z,79.70
2022-08-25T08:16:51.992Z,79.50
2022-08-25T08:19:18.898Z,79.60
2022-08-25T08:21:50.731Z,79.00
2022-08-25T08:24:44.035Z,78.70
2022-08-25T08:27:07.890Z,78.70
2022-08-25T08:29:35.236Z,78.30
2022-08-25T08:32:05.451Z,78.50
2022-08-25T08:34:32.756Z,78.10
2022-08-25T08:37:00.098Z,78.10
2022-08-25T08:39:27.659Z,78.20
2022-08-25T08:42:18.635Z,77.30
2022-08-25T08:44:45.399Z,76.60
2022-08-25T08:47:18.107Z,76.20
2022-08-25T08:50:04.115Z,76.10
2022-08-25T08:52:49.631Z,76.80
2022-08-25T08:55:31.622Z,76.40
2022-08-25T08:57:59.774Z,73.70
2022-08-25T09:00:27.035Z,73.30
2022-08-25T09:03:04.995Z,73.10
2022-08-25T09:05:41.823Z,72.30
2022-08-25T09:08:12.495Z,72.00
2022-08-25T09:10:49.363Z,70.30
2022-08-25T09:13:29.430Z,71.60
2022-08-25T09:16:33.101Z,69.00
2022-08-25T09:19:11.872Z,70.40
2022-08-25T09:21:56.980Z,68.70
2022-08-25T09:24:23.823Z,70.00
2022-08-25T09:27:01.994Z,70.20
2022-08-25T09:29:33.215Z,68.60
2022-08-25T09:32:00.417Z,67.40
2022-08-25T09:34:31.160Z,66.20
2022-08-25T09:36:58.761Z,63.60
2022-08-25T09:39:26.589Z,65.30
2022-08-25T09:41:56.287Z,65.70
2022-08-25T09:44:23.145Z,64.00
2022-08-25T09:47:08.498Z,57.60
2022-08-25T09:49:38.055Z,59.80
2022-08-25T09:52:25.226Z,59.90
2022-08-25T09:54:53.175Z,56.50
2022-08-25T09:57:36.301Z,54.40
2022-08-25T10:00:22.265Z,54.60
2022-08-25T10:03:18.318Z,54.30
2022-08-25T10:05:57.377Z,55.80
2022-08-25T10:08:41.286Z,56.20
2022-08-25T10:11:15.436Z,53.50
2022-08-25T10:13:49.331Z,52.20
2022-08-25T10:16:35.562Z,50.30
2022-08-25T10:19:06.744Z,49.00
2022-08-25T10:21:34.828Z,49.60
2022-08-25T10:24:03.044Z,49.40
2022-08-25T10:26:48.913Z,48.40
2022-08-25T10:29:38.612Z,48.80
2022-08-25T10:32:32.530Z,46.30
2022-08-25T10:35:05.486Z,46.30
2022-08-25T10:37:44.540Z,46.70
2022-08-25T10:40:27.837Z,45.40
2022-08-25T10:43:07.101Z,45.50
2022-08-25T10:45:51.341Z,42.90
2022-08-25T10:48:22.383Z,41.70
2022-08-25T10:50:56.792Z,43.00
2022-08-25T10:53:39.240Z,42.50
2022-08-25T10:56:24.695Z,41.10
2022-08-25T10:59:18.195Z,39.50
2022-08-25T11:01:54.265Z,41.40
2022-08-25T11:04:40.103Z,40.30
2022-08-25T11:07:15.451Z,40.40
2022-08-25T11:09:49.726Z,41.00
2022-08-25T11:12:34.980Z,40.50
2022-08-25T11:15:19.229Z,40.40
2022-08-25T11:17:58.447Z,39.70
2022-08-25T11:20:41.955Z,39.20
2022-08-25T11:23:22.885Z,38.80
2022-08-25T11:26:05.215Z,38.90
2022-08-25T11:29:00.478Z,38.60
2022-08-25T11:31:28.273Z,39.10
2022-08-25T11:33:56.546Z,38.90
2022-08-25T11:36:32.308Z,38.90
2022-08-25T11:39:33.996Z,38.80
2022-08-25T11:42:26.436Z,38.30
2022-08-25T11:45:36.516Z,38.30
2022-08-25T11:48:22.040Z,36.70
2022-08-25T11:51:10.851Z,35.70
2022-08-25T11:53:42.468Z,36.80
2022-08-25T11:56:30.117Z,34.60
2022-08-25T11:58:57.242Z,35.10
2022-08-25T12:01:39.471Z,34.70
2022-08-25T12:04:44.800Z,34.20
2022-08-25T12:07:17.521Z,33.80
2022-08-25T12:09:51.465Z,33.80
2022-08-25T12:12:36.487Z,33.30
2022-08-25T12:15:24.416Z,33.30
2022-08-25T12:18:13.686Z,32.90
2022-08-25T12:20:54.593Z,33.20
2022-08-25T12:23:36.262Z,33.20
2022-08-25T12:26:05.431Z,33.30
2022-08-25T12:28:35.343Z,33.40
2022-08-25T12:31:26.578Z,35.00
2022-08-25T12:34:02.800Z,34.50
2022-08-25T12:36:31.500Z,35.00
2022-08-25T12:39:29.697Z,34.80
2022-08-25T12:42:06.171Z,34.70
2022-08-25T12:44:43.928Z,35.30
2022-08-25T12:47:12.470Z,34.20
2022-08-25T12:49:40.033Z,35.60
2022-08-25T12:52:10.738Z,36.10
2022-08-25T12:54:57.641Z,35.60
2022-08-25T12:57:50.428Z,35.00
2022-08-25T13:00:21.288Z,35.00
2022-08-25T13:03:07.456Z,34.30
2022-08-25T13:05:53.645Z,34.10
2022-08-25T13:08:47.047Z,34.30
2022-08-25T13:11:20.226Z,33.90
2022-08-25T13:13:47.310Z,33.20
2022-08-25T13:16:19.284Z,32.50
2022-08-25T13:18:51.307Z,33.60
2022-08-25T13:21:21.341Z,32.50
2022-08-25T13:23:53.889Z,31.50
2022-08-25T13:26:26.280Z,31.10
2022-08-25T13:29:12.185Z,32.90
2022-08-25T13:31:50.128Z,32.80
2022-08-25T13:34:19.341Z,32.50
2022-08-25T13:37:07.635Z,32.60
2022-08-25T13:42:24.448Z,32.80
2022-08-25T13:44:55.823Z,32.80
2022-08-25T13:47:43.634Z,32.80
2022-08-25T13:50:31.247Z,33.10
2022-08-25T13:53:06.147Z,31.90
2022-08-25T13:56:42.078Z,31.80
2022-08-25T13:59:31.449Z,31.80
2022-08-25T14:01:59.895Z,31.40
2022-08-25T14:04:27.365Z,31.20
2022-08-25T14:07:12.530Z,30.70
2022-08-25T14:09:51.692Z,30.40
2022-08-25T14:12:31.192Z,31.10
2022-08-25T14:15:02.744Z,31.30
2022-08-25T14:17:36.492Z,31.10
2022-08-25T14:20:07.617Z,31.90
2022-08-25T14:22:34.655Z,31.60
2022-08-25T14:25:01.538Z,31.40
2022-08-25T14:27:28.364Z,31.60
2022-08-25T14:29:55.284Z,33.70
2022-08-25T14:32:22.761Z,31.50
2022-08-25T14:34:49.619Z,32.00
2022-08-25T14:37:18.165Z,31.90
2022-08-25T14:39:45.297Z,31.80
2022-08-25T14:42:13.630Z,32.30
2022-08-25T14:44:40.538Z,31.50
2022-08-25T14:47:07.692Z,31.40
2022-08-25T14:49:38.582Z,31.60
2022-08-25T14:52:10.439Z,32.30
2022-08-25T14:54:39.802Z,32.20
2022-08-25T14:57:08.476Z,32.40
2022-08-25T14:59:35.878Z,32.30
2022-08-25T15:02:13.053Z,32.10
2022-08-25T15:04:39.969Z,32.10
2022-08-25T15:07:34.852Z,32.40
2022-08-25T15:10:01.892Z,31.90
2022-08-25T15:12:46.555Z,31.90
2022-08-25T15:15:14.485Z,30.00
2022-08-25T15:17:42.069Z,31.50
2022-08-25T15:20:11.601Z,32.40
2022-08-25T15:22:38.407Z,32.50
2022-08-25T15:25:05.706Z,31.80
2022-08-25T15:27:34.667Z,32.20
2022-08-25T15:30:01.530Z,31.90
2022-08-25T15:32:29.505Z,31.40
2022-08-25T15:34:56.553Z,31.80
2022-08-25T15:37:23.637Z,31.50
2022-08-25T15:39:50.475Z,32.20
2022-08-25T15:42:18.030Z,31.80
2022-08-25T15:44:53.228Z,31.30
2022-08-25T15:47:21.146Z,32.10
2022-08-25T15:49:47.969Z,32.30
2022-08-25T15:52:15.723Z,31.80
2022-08-25T15:54:42.717Z,32.50
2022-08-25T15:57:16.866Z,32.30
2022-08-25T15:59:52.469Z,32.90
2022-08-25T16:02:20.388Z,32.80
2022-08-25T16:04:47.674Z,32.40
2022-08-25T16:07:14.503Z,34.20
2022-08-25T16:09:41.709Z,34.20
2022-08-25T16:12:08.989Z,35.10
2022-08-25T16:14:37.473Z,35.80
2022-08-25T16:17:05.376Z,36.60
2022-08-25T16:19:32.439Z,37.60
2022-08-25T16:21:59.926Z,37.50
2022-08-25T16:24:26.927Z,37.80
2022-08-25T16:26:55.985Z,38.00
2022-08-25T16:29:23.582Z,38.20
2022-08-25T16:31:53.298Z,38.40
2022-08-25T16:34:24.303Z,38.40
2022-08-25T16:36:52.802Z,38.40
2022-08-25T16:39:20.699Z,38.70
2022-08-25T16:41:47.779Z,38.90
2022-08-25T16:44:14.562Z,38.90
2022-08-25T16:46:44.329Z,39.10
2022-08-25T16:49:11.863Z,39.70
2022-08-25T16:51:39.114Z,39.80
2022-08-25T16:54:25.115Z,39.40
2022-08-25T16:56:55.165Z,39.60
2022-08-25T16:59:23.628Z,39.80
2022-08-25T17:01:51.210Z,39.30
2022-08-25T17:04:18.106Z,39.50
2022-08-25T17:06:51.643Z,39.70
2022-08-25T17:09:24.163Z,39.80
2022-08-25T17:11:54.363Z,40.50
2022-08-25T17:14:21.858Z,40.70
2022-08-25T17:16:51.213Z,40.80
2022-08-25T17:19:18.785Z,41.00
2022-08-25T17:21:49.868Z,41.40
2022-08-25T17:24:17.216Z,41.30
2022-08-25T17:26:46.169Z,41.50
2022-08-25T17:29:13.136Z,41.90
2022-08-25T17:31:40.485Z,41.80
2022-08-25T17:34:09.520Z,42.20
2022-08-25T17:36:36.726Z,42.50
2022-08-25T17:39:03.889Z,42.60
2022-08-25T17:41:30.779Z,42.90
2022-08-25T17:43:58.716Z,41.80
2022-08-25T17:46:26.146Z,42.90
2022-08-25T17:48:53.752Z,43.60
2022-08-25T17:51:21.234Z,44.20
2022-08-25T17:53:49.039Z,44.90
2022-08-25T17:56:17.567Z,45.20
2022-08-25T17:58:45.716Z,45.40
2022-08-25T18:01:20.341Z,45.70
2022-08-25T18:03:49.412Z,46.30
2022-08-25T18:06:16.884Z,45.60
2022-08-25T18:08:44.388Z,46.40
2022-08-25T18:11:18.888Z,47.00
2022-08-25T18:13:45.767Z,47.60
2022-08-25T18:16:13.309Z,48.10
2022-08-25T18:18:40.718Z,48.50
2022-08-25T18:21:13.395Z,48.90
2022-08-25T18:23:40.373Z,50.10
2022-08-25T18:26:07.110Z,50.20
2022-08-25T18:28:36.534Z,50.40
2022-08-25T18:31:03.683Z,50.60
2022-08-25T18:33:30.712Z,50.80
2022-08-25T18:35:57.798Z,51.30
2022-08-25T18:38:43.496Z,51.40
2022-08-25T18:41:10.879Z,51.80
2022-08-25T18:43:39.138Z,52.00
2022-08-25T18:46:07.063Z,52.30
2022-08-25T18:48:35.240Z,52.60
2022-08-25T18:51:02.302Z,53.00
2022-08-25T18:53:49.545Z,53.20
2022-08-25T18:56:18.116Z,53.60
2022-08-25T18:58:45.661Z,53.90
2022-08-25T19:01:13.725Z,54.30
2022-08-25T19:03:40.660Z,54.70
2022-08-25T19:06:09.410Z,55.10
2022-08-25T19:08:38.419Z,55.40
2022-08-25T19:11:09.768Z,55.60
2022-08-25T19:13:37.788Z,56.00
2022-08-25T19:16:10.795Z,56.40
2022-08-25T19:18:39.043Z,56.90
2022-08-25T19:21:06.713Z,57.30
2022-08-25T19:23:33.661Z,57.20
2022-08-25T19:26:00.500Z,57.60
2022-08-25T19:28:27.269Z,58.20
2022-08-25T19:30:56.599Z,58.70
2022-08-25T19:33:42.474Z,58.90
2022-08-25T19:36:10.447Z,59.50
2022-08-25T19:38:38.135Z,60.00
2022-08-25T19:41:10.483Z,60.40
2022-08-25T19:43:56.720Z,60.90
2022-08-25T19:46:32.231Z,61.30
2022-08-25T19:49:08.068Z,61.40
2022-08-25T19:51:39.183Z,61.90
2022-08-25T19:54:06.764Z,62.10
2022-08-25T19:56:36.496Z,62.60
2022-08-25T19:59:04.235Z,63.00
2022-08-25T20:01:31.851Z,63.40
2022-08-25T20:03:58.698Z,64.00
2022-08-25T20:06:27.647Z,64.20
2022-08-25T20:08:59.012Z,64.40
2022-08-25T20:11:29.046Z,64.90
2022-08-25T20:13:59.282Z,65.10
2022-08-25T20:16:30.103Z,65.20
2022-08-25T20:18:56.990Z,65.50
2022-08-25T20:21:24.340Z,66.00
2022-08-25T20:24:09.825Z,66.90
2022-08-25T20:26:37.147Z,67.30
2022-08-25T20:29:05.221Z,67.70
2022-08-25T20:31:32.347Z,68.00
2022-08-25T20:34:03.074Z,68.30
2022-08-25T20:36:31.505Z,69.00
2022-08-25T20:38:59.321Z,68.50
2022-08-25T20:41:26.889Z,69.10
2022-08-25T20:43:53.957Z,69.30
2022-08-25T20:46:22.565Z,69.70
2022-08-25T20:48:49.482Z,69.90
2022-08-25T20:51:18.738Z,70.10
2022-08-25T20:53:45.635Z,70.20
2022-08-25T20:56:14.246Z,70.50
2022-08-25T20:58:42.252Z,70.50
2022-08-25T21:01:10.026Z,70.90
2022-08-25T21:03:37.529Z,71.10
2022-08-25T21:06:07.406Z,71.40
2022-08-25T21:08:34.551Z,71.40
2022-08-25T21:11:02.079Z,72.10
2022-08-25T21:13:29.239Z,72.30
2022-08-25T21:16:01.679Z,72.30
2022-08-25T21:18:31.642Z,73.10
2022-08-25T21:21:02.789Z,73.30
2022-08-25T21:23:33.600Z,73.50
2022-08-25T21:26:00.435Z,73.80
2022-08-25T21:28:27.291Z,74.00
2022-08-25T21:30:54.333Z,74.40
2022-08-25T21:33:23.049Z,74.60
2022-08-25T21:35:55.092Z,75.10
2022-08-25T21:38:21.980Z,75.30
2022-08-25T21:40:48.854Z,75.50
2022-08-25T21:43:15.807Z,75.60
2022-08-25T21:45:47.146Z,75.80
2022-08-25T21:48:14.144Z,75.80
2022-08-25T21:50:41.301Z,75.70
2022-08-25T21:53:09.278Z,76.40
2022-08-25T21:55:39.563Z,76.10
2022-08-25T21:58:08.841Z,75.40
2022-08-25T22:30:29.555Z,76.90
2022-08-25T22:32:58.407Z,77.60
2022-08-25T22:35:25.718Z,77.50
2022-08-25T22:37:52.515Z,78.00
2022-08-25T22:40:19.621Z,78.30
2022-08-25T22:42:48.182Z,79.40
2022-08-25T22:45:15.208Z,80.30
2022-08-25T22:47:42.195Z,81.30
2022-08-25T22:50:09.272Z,82.20
2022-08-25T22:52:36.087Z,82.90
2022-08-25T22:55:03.132Z,83.60
2022-08-25T22:57:29.964Z,84.90
2022-08-25T22:59:59.126Z,85.60
2022-08-25T23:02:26.319Z,86.30
2022-08-25T23:04:57.946Z,86.90
2022-08-25T23:07:28.175Z,87.30
2022-08-25T23:09:54.995Z,87.90
2022-08-25T23:12:23.663Z,88.10
2022-08-25T23:14:51.438Z,88.70
2022-08-25T23:17:18.312Z,89.20
2022-08-25T23:19:45.882Z,89.70
2022-08-25T23:22:16.164Z,90.10
2022-08-25T23:24:44.317Z,90.30
2022-08-25T23:27:13.425Z,90.60
2022-08-25T23:29:41.654Z,90.80
2022-08-25T23:32:09.675Z,90.90
2022-08-25T23:34:42.892Z,91.10
2022-08-25T23:37:14.442Z,91.20
2022-08-25T23:39:45.374Z,91.30
2022-08-25T23:42:12.366Z,91.30
2022-08-25T23:44:39.171Z,91.50
2022-08-25T23:47:07.100Z,91.50
2022-08-25T23:49:34.013Z,91.60
2022-08-25T23:52:01.860Z,91.60
2022-08-25T23:54:31.567Z,91.80
2022-08-25T23:56:59.356Z,91.80
2022-08-25T23:59:26.233Z,91.90
